Time;durP1;ratioP1;P1;durP2;ratioP2;P2;SDS_P1;SDS_P2;PMS_P1;PMS_P2;Temp;Humidity;BMP_temperature;BMP_pressure;BME280_temperature;BME280_humidity;BME280_pressure;Samples;Min_cycle;Max_cycle;Signal;HPM_P1;HPM_P2
2021/11/10 00:01:16;;;;;;;9.77;8.10;;;;;;;7.05;67.22;101114.84;10330408;28;20498;-58
2021/11/10 00:06:18;;;;;;;9.07;8.02;;;;;;;7.05;67.60;101110.41;10331386;28;20114;-59
2021/11/10 00:11:20;;;;;;;8.85;7.63;;;;;;;7.01;67.60;101100.94;10330167;28;20046;-58
2021/11/10 00:16:21;;;;;;;11.73;7.82;;;;;;;6.95;67.85;101093.31;10327385;28;20176;-59
2021/11/10 00:21:24;;;;;;;6.32;5.55;;;;;;;7.01;68.03;101094.75;10333203;28;20047;-57
2021/11/10 00:26:26;;;;;;;12.48;6.90;;;;;;;7.00;68.50;101101.84;10331388;28;20062;-57
2021/11/10 00:31:27;;;;;;;8.13;7.10;;;;;;;7.04;68.60;101102.53;10333718;28;20117;-58
2021/11/10 00:36:29;;;;;;;8.27;6.28;;;;;;;6.99;68.79;101092.19;10319831;28;20418;-61
2021/11/10 00:41:30;;;;;;;6.93;5.82;;;;;;;7.03;68.73;101084.97;10325764;28;20499;-57
2021/11/10 00:46:32;;;;;;;9.00;5.15;;;;;;;7.05;68.34;101094.53;10282693;28;20138;-60
2021/11/10 00:51:34;;;;;;;6.65;5.13;;;;;;;7.05;68.80;101102.47;10280846;28;20128;-60
2021/11/10 00:56:35;;;;;;;7.97;5.70;;;;;;;7.19;68.43;101108.81;10284452;28;20385;-57
2021/11/10 01:01:37;;;;;;;7.00;5.55;;;;;;;7.19;68.16;101109.72;10288302;28;20073;-59
2021/11/10 01:06:38;;;;;;;6.50;5.47;;;;;;;7.21;68.27;101105.16;10279678;28;20136;-59
2021/11/10 01:11:40;;;;;;;6.20;4.90;;;;;;;7.12;67.69;101104.81;10286224;28;20566;-59
2021/11/10 01:16:41;;;;;;;6.95;5.18;;;;;;;7.07;67.36;101107.69;10288950;28;20587;-57
2021/11/10 01:21:43;;;;;;;5.72;4.95;;;;;;;6.99;67.71;101094.84;10283723;28;20184;-59
2021/11/10 01:26:45;;;;;;;5.95;5.35;;;;;;;6.82;67.73;101095.72;10278447;28;20698;-59
2021/11/10 01:31:47;;;;;;;6.00;5.43;;;;;;;6.80;68.15;101094.09;10282503;28;20591;-57
2021/11/10 01:36:48;;;;;;;8.35;5.43;;;;;;;6.71;68.24;101112.16;10288941;28;20058;-59
2021/11/10 01:41:53;;;;;;;8.18;5.80;;;;;;;6.83;67.94;101091.28;10289912;28;20141;-60
2021/11/10 01:46:57;;;;;;;7.07;6.28;;;;;;;6.82;68.17;101085.13;10323066;28;20098;-56
2021/11/10 01:52:00;;;;;;;7.15;5.80;;;;;;;6.70;68.65;101083.13;10326608;28;20455;-60
2021/11/10 01:57:05;;;;;;;6.65;5.57;;;;;;;6.75;68.60;101085.53;10331848;28;20131;-57
2021/11/10 02:02:21;;;;;;;5.95;4.85;;;;;;;6.77;68.36;101068.66;10284370;28;20105;-58
2021/11/10 02:07:23;;;;;;;7.20;6.30;;;;;;;6.83;68.32;101064.81;10317875;28;20053;-57
2021/11/10 02:12:26;;;;;;;6.65;6.05;;;;;;;6.75;68.49;101061.72;10332787;28;20121;-58
2021/11/10 02:17:28;;;;;;;7.22;6.28;;;;;;;6.71;68.32;101061.88;10332655;28;21573;-56
2021/11/10 02:22:31;;;;;;;10.68;5.78;;;;;;;6.69;68.33;101074.31;10332327;28;20056;-57
2021/11/10 02:27:34;;;;;;;6.78;6.03;;;;;;;6.71;67.96;101064.53;10294052;28;20054;-61
2021/11/10 02:32:36;;;;;;;6.68;6.00;;;;;;;6.48;68.48;101067.47;10286874;28;20546;-57
2021/11/10 02:37:37;;;;;;;7.25;6.55;;;;;;;6.51;69.17;101077.91;10279906;28;20649;-59
2021/11/10 02:42:39;;;;;;;8.32;6.35;;;;;;;6.31;69.17;101063.88;10273646;28;20125;-57
2021/11/10 02:47:41;;;;;;;8.55;6.55;;;;;;;6.37;69.21;101071.50;10278583;28;20068;-57
2021/11/10 02:52:43;;;;;;;7.70;6.28;;;;;;;6.47;68.32;101056.06;10320319;28;20068;-60
2021/11/10 02:57:44;;;;;;;7.65;6.18;;;;;;;6.29;67.95;101060.47;10340148;28;20145;-59
2021/11/10 03:02:46;;;;;;;6.90;6.18;;;;;;;6.17;69.08;101053.13;10326095;28;20116;-58
2021/11/10 03:07:48;;;;;;;6.88;6.13;;;;;;;6.23;69.28;101042.28;10332288;28;20487;-60
2021/11/10 03:12:50;;;;;;;7.82;5.78;;;;;;;6.25;68.82;101040.41;10334527;28;20123;-57
2021/11/10 03:17:51;;;;;;;9.00;6.78;;;;;;;6.28;68.80;101045.53;10331816;28;20081;-58
2021/11/10 03:23:00;;;;;;;6.80;5.88;;;;;;;6.28;68.59;101034.13;10288826;28;20129;-57
2021/11/10 03:28:02;;;;;;;6.20;5.60;;;;;;;6.23;69.39;101036.13;10290747;28;20417;-57
2021/11/10 03:33:03;;;;;;;7.75;5.35;;;;;;;6.27;68.85;101037.69;10276770;28;20053;-59
2021/11/10 03:38:05;;;;;;;7.97;5.88;;;;;;;6.19;69.03;101028.34;10285085;28;20366;-58
2021/11/10 03:43:06;;;;;;;6.93;5.55;;;;;;;6.11;69.54;101011.13;10285305;28;20050;-57
2021/11/10 03:48:10;;;;;;;6.70;5.80;;;;;;;6.08;69.56;101011.28;10275256;28;20127;-59
2021/11/10 03:53:12;;;;;;;7.95;5.07;;;;;;;6.03;69.91;101008.03;10289816;28;20070;-60
2021/11/10 03:58:14;;;;;;;8.70;5.82;;;;;;;6.01;70.01;100997.53;10324309;28;20388;-58
2021/11/10 04:03:15;;;;;;;6.38;4.97;;;;;;;6.11;69.71;101012.00;10328666;28;20105;-57
2021/11/10 04:08:17;;;;;;;6.38;5.13;;;;;;;6.17;69.82;101018.75;10324415;28;20041;-57
2021/11/10 04:13:19;;;;;;;9.52;5.20;;;;;;;6.17;69.54;101021.41;10333376;28;20672;-59
2021/11/10 04:18:21;;;;;;;5.15;4.65;;;;;;;6.10;69.67;101012.94;10330046;28;20077;-58
2021/11/10 04:23:22;;;;;;;7.55;5.22;;;;;;;6.04;69.82;101004.47;10331529;28;20115;-59
2021/11/10 04:28:24;;;;;;;5.55;5.05;;;;;;;5.97;69.40;101004.75;10293196;28;20120;-57
2021/11/10 04:33:25;;;;;;;9.43;5.65;;;;;;;5.90;69.36;101000.69;10285160;28;20310;-58
2021/11/10 04:38:27;;;;;;;8.07;5.90;;;;;;;5.89;69.20;100996.31;10284192;28;20041;-58
2021/11/10 04:43:29;;;;;;;6.80;5.85;;;;;;;5.90;69.61;100998.03;10291160;28;20377;-57
2021/11/10 04:48:30;;;;;;;7.78;6.40;;;;;;;5.83;69.75;101001.91;10295363;28;20240;-57
2021/11/10 04:53:35;;;;;;;9.32;6.00;;;;;;;5.96;69.71;100988.94;10293619;28;20042;-57
2021/11/10 04:58:37;;;;;;;8.25;5.75;;;;;;;5.93;69.65;100984.69;10330971;28;20180;-57
2021/11/10 05:03:38;;;;;;;7.40;5.75;;;;;;;5.93;70.10;100987.31;10326709;28;20203;-57
2021/11/10 05:08:40;;;;;;;8.13;5.45;;;;;;;5.85;69.87;100973.63;10312589;28;20154;-56
2021/11/10 05:13:42;;;;;;;9.55;6.18;;;;;;;5.86;69.93;100970.06;10287586;28;20050;-57
2021/11/10 05:18:44;;;;;;;7.68;5.47;;;;;;;5.88;70.00;100993.75;10314147;28;20061;-56
2021/11/10 05:23:45;;;;;;;14.35;6.05;;;;;;;5.82;70.16;100979.06;10327688;28;20065;-58
2021/11/10 05:28:47;;;;;;;7.25;6.00;;;;;;;5.84;70.01;100993.91;10326189;28;20570;-57
2021/11/10 05:33:49;;;;;;;6.20;5.60;;;;;;;5.94;69.97;100996.94;10324234;28;20061;-56
2021/11/10 05:38:51;;;;;;;7.88;6.05;;;;;;;6.07;69.62;101001.69;10327486;28;20534;-56
2021/11/10 05:43:52;;;;;;;6.95;5.90;;;;;;;6.03;69.76;100997.47;10315949;28;20483;-58
2021/11/10 05:48:54;;;;;;;7.63;5.68;;;;;;;6.11;69.71;101000.56;10317655;28;20192;-57
2021/11/10 05:53:57;;;;;;;7.43;5.60;;;;;;;6.11;69.03;101006.72;10322964;28;20057;-57
2021/11/10 05:59:00;;;;;;;6.95;6.10;;;;;;;5.89;69.85;101012.19;10322776;28;20127;-56
2021/11/10 06:04:02;;;;;;;7.75;6.15;;;;;;;5.75;70.08;101022.53;10330243;28;20729;-59
2021/11/10 06:09:04;;;;;;;7.10;5.82;;;;;;;5.88;70.04;101012.25;10327566;28;20597;-57
2021/11/10 06:14:05;;;;;;;8.38;5.90;;;;;;;5.99;69.57;101013.47;10321038;28;20058;-59
2021/11/10 06:19:07;;;;;;;9.18;6.13;;;;;;;5.80;69.31;101023.19;10318404;28;20130;-58
2021/11/10 06:24:08;;;;;;;8.63;5.82;;;;;;;5.75;69.43;101031.34;10316507;28;20085;-58
2021/11/10 06:29:10;;;;;;;6.80;5.45;;;;;;;5.64;69.23;101023.94;10323273;28;20061;-60
2021/11/10 06:34:11;;;;;;;6.68;5.63;;;;;;;5.57;69.63;101027.78;10324805;28;20191;-58
2021/11/10 06:39:13;;;;;;;8.75;5.55;;;;;;;5.53;70.44;101026.22;10328626;28;20061;-60
2021/11/10 06:44:16;;;;;;;6.78;5.70;;;;;;;5.45;70.19;101025.72;10331150;28;20053;-59
2021/11/10 06:49:18;;;;;;;7.43;5.35;;;;;;;5.69;70.58;101028.13;10322897;28;20155;-55
2021/11/10 06:54:20;;;;;;;11.55;6.10;;;;;;;5.72;69.15;101038.53;10328954;28;20135;-57
2021/11/10 06:59:21;;;;;;;6.70;5.78;;;;;;;5.70;69.68;101037.78;10330615;28;20054;-61
2021/11/10 07:04:23;;;;;;;7.15;6.45;;;;;;;5.82;69.93;101045.09;10329322;28;20056;-59
2021/11/10 07:09:25;;;;;;;6.28;5.10;;;;;;;5.91;68.65;101041.16;10326046;28;20056;-59
2021/11/10 07:14:27;;;;;;;7.85;5.80;;;;;;;5.96;69.11;101024.16;10324520;28;20156;-58
2021/11/10 07:19:28;;;;;;;7.95;6.05;;;;;;;6.10;68.07;101035.88;10324130;28;20058;-57
2021/11/10 07:24:30;;;;;;;8.07;6.70;;;;;;;6.06;68.15;101027.22;10322629;28;20046;-56
2021/11/10 07:29:32;;;;;;;6.72;5.65;;;;;;;6.16;68.25;101041.72;10329480;28;20057;-59
2021/11/10 07:34:34;;;;;;;9.77;6.72;;;;;;;6.24;68.10;101043.97;10331179;28;20050;-58
2021/11/10 07:39:37;;;;;;;8.43;6.22;;;;;;;6.37;68.33;101050.34;10327578;28;20072;-56
2021/11/10 07:44:40;;;;;;;6.65;5.70;;;;;;;6.46;67.90;101046.41;10341529;28;20392;-56
2021/11/10 07:49:44;;;;;;;8.38;5.88;;;;;;;6.52;67.56;101042.59;10341138;28;20559;-56
2021/11/10 07:54:45;;;;;;;6.90;6.07;;;;;;;6.64;67.54;101041.97;10341598;28;22806;-57
2021/11/10 07:59:47;;;;;;;9.13;5.35;;;;;;;6.72;67.58;101038.91;10333828;28;20156;-57
2021/11/10 08:04:48;;;;;;;7.30;6.05;;;;;;;6.82;67.75;101055.19;10336720;28;20464;-58
2021/11/10 08:09:50;;;;;;;8.15;5.38;;;;;;;6.83;67.58;101057.75;10339867;28;20088;-59
2021/11/10 08:14:52;;;;;;;6.35;4.95;;;;;;;6.82;67.76;101055.19;10348816;28;20580;-57
2021/11/10 08:19:53;;;;;;;7.38;5.68;;;;;;;6.79;67.52;101072.06;10355747;28;20591;-57
2021/11/10 08:24:55;;;;;;;10.75;6.97;;;;;;;6.68;67.15;101085.84;10356402;28;20114;-58
2021/11/10 08:30:07;;;;;;;9.90;6.85;;;;;;;6.69;67.55;101092.84;10339900;28;20541;-57
2021/11/10 08:35:09;;;;;;;11.43;7.10;;;;;;;6.86;67.51;101088.47;10347240;28;20164;-60
2021/11/10 08:40:12;;;;;;;11.00;7.03;;;;;;;7.04;67.28;101076.06;10352406;28;20046;-58
2021/11/10 08:45:19;;;;;;;8.60;7.30;;;;;;;7.21;66.70;101078.69;10347173;28;20050;-58
2021/11/10 08:50:22;;;;;;;10.00;7.70;;;;;;;7.35;65.96;101067.34;10345777;28;20041;-58
2021/11/10 08:55:24;;;;;;;9.95;7.95;;;;;;;7.51;65.67;101063.88;10342184;28;20107;-59
2021/11/10 09:00:29;;;;;;;11.10;7.63;;;;;;;7.57;64.60;101069.69;10348115;28;20100;-58
2021/11/10 09:05:34;;;;;;;12.23;7.22;;;;;;;7.64;64.44;101059.63;10341624;28;20138;-59
2021/11/10 09:10:36;;;;;;;8.40;7.50;;;;;;;7.87;63.96;101060.13;10336454;23;20486;-59
2021/11/10 09:15:37;;;;;;;8.90;7.05;;;;;;;7.95;63.29;101047.28;10320686;28;20053;-61
2021/11/10 09:20:40;;;;;;;8.48;6.68;;;;;;;8.50;62.37;101069.81;10314353;28;20159;-58
2021/11/10 09:25:44;;;;;;;9.80;8.32;;;;;;;8.88;61.27;101063.16;10313319;28;20061;-57
2021/11/10 09:30:50;;;;;;;8.68;7.43;;;;;;;9.37;59.39;101082.25;10313289;28;20124;-59
2021/11/10 09:35:54;;;;;;;8.40;6.78;;;;;;;10.61;55.34;101064.53;10316797;28;20050;-59
2021/11/10 09:40:59;;;;;;;9.88;6.45;;;;;;;11.73;51.82;101062.13;10317664;28;20127;-58
2021/11/10 09:46:02;;;;;;;8.27;6.53;;;;;;;12.57;49.43;101063.03;10315680;28;20501;-58
2021/11/10 09:51:05;;;;;;;9.10;7.20;;;;;;;12.97;48.51;101067.97;10313394;28;20683;-59
2021/11/10 09:56:07;;;;;;;10.10;6.65;;;;;;;13.19;47.86;101074.31;10314878;28;20156;-58
2021/11/10 10:01:09;;;;;;;6.78;5.90;;;;;;;13.30;47.29;101071.66;10312984;28;20307;-60
2021/11/10 10:06:13;;;;;;;6.53;5.93;;;;;;;14.07;45.71;101054.78;10309282;28;20054;-59
2021/11/10 10:11:16;;;;;;;7.95;6.90;;;;;;;14.46;44.19;101056.94;10314960;28;20053;-59
2021/11/10 10:16:24;;;;;;;8.27;7.13;;;;;;;15.78;41.81;101066.13;10311256;28;20058;-58
2021/11/10 10:21:25;;;;;;;7.63;5.60;;;;;;;19.45;35.54;101063.88;10324998;28;20201;-59
2021/11/10 10:26:28;;;;;;;7.97;6.40;;;;;;;20.69;32.05;101052.34;10307972;28;21536;-59
2021/11/10 10:31:29;;;;;;;6.47;5.28;;;;;;;21.04;30.36;101044.84;10307928;28;20077;-59
2021/11/10 10:36:34;;;;;;;7.18;5.97;;;;;;;22.04;29.28;101032.56;10312073;28;20056;-59
2021/11/10 10:41:45;;;;;;;9.40;7.50;;;;;;;20.21;30.86;101006.19;10312227;28;20956;-59
2021/11/10 10:46:54;;;;;;;8.00;7.18;;;;;;;21.38;29.67;101016.66;10309501;28;20053;-59
2021/11/10 10:52:13;;;;;;;7.43;6.18;;;;;;;23.47;26.43;101007.25;10325282;28;20075;-58
2021/11/10 10:57:19;;;;;;;6.95;6.00;;;;;;;23.50;26.52;101003.31;10311351;28;20049;-58
2021/11/10 11:02:26;;;;;;;7.78;6.82;;;;;;;23.42;26.41;101008.84;10308934;28;20129;-58
2021/11/10 11:07:31;;;;;;;6.90;6.30;;;;;;;23.54;26.23;101001.91;10309947;28;20808;-58
2021/11/10 11:12:34;;;;;;;7.05;6.45;;;;;;;24.16;26.41;100999.66;10308672;28;20148;-58
2021/11/10 11:17:40;;;;;;;6.45;5.85;;;;;;;25.45;24.17;101003.06;10309585;28;20658;-58
2021/11/10 11:22:41;;;;;;;7.70;6.90;;;;;;;25.74;22.87;101010.91;10309657;28;20088;-58
2021/11/10 11:27:54;;;;;;;7.03;6.43;;;;;;;23.08;25.70;100999.41;10310833;28;20582;-57
2021/11/10 11:32:59;;;;;;;8.90;7.25;;;;;;;20.35;30.75;101006.53;10310251;28;20050;-58
2021/11/10 11:38:03;;;;;;;9.15;7.15;;;;;;;20.59;30.41;101002.97;10319199;28;20057;-58
2021/11/10 11:43:08;;;;;;;7.95;6.72;;;;;;;23.37;26.40;100981.41;10326884;28;20115;-57
2021/11/10 11:48:09;;;;;;;10.18;7.38;;;;;;;24.89;24.25;100977.59;10325232;28;20123;-62
2021/11/10 11:53:11;;;;;;;9.30;7.45;;;;;;;24.90;25.03;100962.13;10323657;28;20042;-58
2021/11/10 11:58:19;;;;;;;7.82;7.03;;;;;;;22.80;26.55;100953.91;10323489;28;20049;-59
2021/11/10 12:03:26;;;;;;;8.55;7.53;;;;;;;19.48;31.87;100969.91;10324088;28;20414;-58
2021/11/10 12:08:37;;;;;;;10.32;8.30;;;;;;;19.33;32.42;100955.34;10326423;28;20470;-58
2021/11/10 12:13:59;;;;;;;13.88;8.85;;;;;;;18.22;34.17;100962.28;10326728;28;20471;-57
2021/11/10 12:19:03;;;;;;;10.13;9.15;;;;;;;16.34;37.51;100961.72;10326881;28;20090;-58
2021/11/10 12:24:46;;;;;;;9.23;8.32;;;;;;;15.94;38.45;100919.75;10320984;28;20082;-58
2021/11/10 12:30:12;;;;;;;10.18;9.13;;;;;;;18.02;35.43;100932.84;10251199;28;20127;-58
2021/11/10 12:35:27;;;;;;;11.10;8.88;;;;;;;17.69;35.50;100947.00;10325944;28;20094;-58
2021/11/10 12:40:32;;;;;;;9.35;8.45;;;;;;;16.72;37.06;100938.41;10323732;28;20157;-57
2021/11/10 12:45:39;;;;;;;9.77;8.77;;;;;;;15.76;39.04;100925.81;10323348;28;20104;-56
2021/11/10 12:50:52;;;;;;;9.27;8.40;;;;;;;16.02;39.23;100934.19;10316998;28;20469;-60
2021/11/10 12:55:55;;;;;;;11.27;9.50;;;;;;;15.99;38.32;100923.72;10318564;28;20758;-57
2021/11/10 13:01:13;;;;;;;10.48;8.90;;;;;;;16.59;38.46;100918.09;10320253;28;20297;-57
2021/11/10 13:06:20;;;;;;;10.55;9.30;;;;;;;15.94;39.61;100927.81;10318776;28;20125;-58
2021/11/10 13:11:24;;;;;;;8.95;7.97;;;;;;;14.69;42.12;100937.13;10318842;28;20061;-58
2021/11/10 13:16:26;;;;;;;11.20;9.90;;;;;;;13.69;43.85;100946.41;10315462;28;20566;-58
2021/11/10 13:21:27;;;;;;;11.55;9.60;;;;;;;13.12;46.59;100934.97;10313272;28;20049;-58
2021/11/10 13:26:29;;;;;;;10.48;9.40;;;;;;;12.83;47.27;100955.97;10313738;28;20053;-59
2021/11/10 13:31:31;;;;;;;11.15;10.07;;;;;;;12.37;49.03;100947.91;10314900;28;20081;-57
2021/11/10 13:36:35;;;;;;;10.63;9.27;;;;;;;12.16;49.22;100962.88;10316418;28;20419;-58
2021/11/10 13:41:46;;;;;;;;;;;;;;;12.05;49.31;100961.03;10315407;28;20707;-58
2021/11/10 13:46:57;;;;;;;12.02;10.20;;;;;;;11.96;50.17;100962.56;10316477;28;19995;-59
2021/11/10 13:52:02;;;;;;;13.75;10.82;;;;;;;11.79;50.06;100957.63;10308985;28;20161;-58
2021/11/10 13:57:12;;;;;;;14.70;10.18;;;;;;;11.66;50.86;100957.69;10310889;28;20531;-59
2021/11/10 14:02:23;;;;;;;14.68;10.82;;;;;;;11.58;51.52;100944.09;10310479;28;20046;-59
2021/11/10 14:07:29;;;;;;;13.57;10.93;;;;;;;11.59;51.72;100938.63;10315247;28;20038;-57
2021/11/10 14:12:37;;;;;;;14.00;11.40;;;;;;;11.79;51.35;100954.97;10314093;28;20096;-60
2021/11/10 14:17:46;;;;;;;11.55;10.35;;;;;;;11.91;51.12;100940.72;10313331;28;21340;-58
2021/11/10 14:23:01;;;;;;;15.40;11.75;;;;;;;12.02;50.93;100938.13;10313107;28;20050;-59
2021/11/10 14:28:03;;;;;;;12.15;10.88;;;;;;;11.72;50.81;100903.03;10307850;28;20080;-58
2021/11/10 14:33:04;;;;;;;15.55;10.80;;;;;;;11.83;51.46;100924.44;10309081;28;20623;-58
2021/11/10 14:38:15;;;;;;;16.08;11.52;;;;;;;11.80;51.59;100932.66;10310310;28;20132;-58
2021/11/10 14:43:46;;;;;;;11.93;10.13;;;;;;;11.59;51.67;100901.31;10306533;28;20143;-58
2021/11/10 14:48:49;;;;;;;13.68;9.75;;;;;;;11.98;51.91;100941.97;10306716;28;20430;-58
2021/11/10 14:54:09;;;;;;;15.10;12.20;;;;;;;12.15;50.38;100923.84;10311052;28;20523;-59
2021/11/10 14:59:11;;;;;;;12.80;10.50;;;;;;;11.47;53.04;100923.53;10309855;28;20300;-59
2021/11/10 15:04:28;;;;;;;16.90;11.95;;;;;;;11.16;54.34;100920.44;10307960;28;20279;-58
2021/11/10 15:09:29;;;;;;;13.88;12.50;;;;;;;10.90;55.34;100922.28;10310271;23;20070;-60
2021/11/10 15:14:46;;;;;;;13.98;11.98;;;;;;;10.71;56.75;100925.44;10281257;28;20055;-60
2021/11/10 15:20:02;;;;;;;14.45;11.82;;;;;;;10.68;56.87;100925.66;10298090;28;20145;-61
2021/11/10 15:25:09;;;;;;;13.45;11.05;;;;;;;10.55;57.25;100926.53;10249104;28;20196;-60
2021/11/10 15:30:13;;;;;;;20.23;11.98;;;;;;;10.38;58.05;100929.50;10246240;28;20050;-60
2021/11/10 15:35:14;;;;;;;15.67;12.80;;;;;;;10.33;58.56;100931.56;10247254;28;20133;-61
2021/11/10 15:40:16;;;;;;;16.08;13.18;;;;;;;10.15;58.50;100925.69;10244898;28;20541;-61
2021/11/10 15:45:19;;;;;;;14.13;12.70;;;;;;;10.03;59.32;100922.91;10240821;28;20111;-60
2021/11/10 15:50:20;;;;;;;16.63;14.52;;;;;;;10.00;59.35;100935.59;10243150;28;20137;-60
2021/11/10 15:55:22;;;;;;;16.27;13.93;;;;;;;9.88;59.48;100927.47;10243733;28;20108;-60
2021/11/10 16:00:26;;;;;;;15.70;14.18;;;;;;;9.80;60.01;100929.75;10244034;28;20062;-60
2021/11/10 16:05:49;;;;;;;22.42;18.98;;;;;;;9.66;61.17;100921.88;10230549;28;20054;-61
2021/11/10 16:10:52;;;;;;;24.27;18.33;;;;;;;9.69;61.56;100932.28;10232904;28;20134;-60
2021/11/10 16:15:55;;;;;;;17.58;15.77;;;;;;;9.63;61.73;100938.03;10232150;28;20050;-60
2021/11/10 16:20:59;;;;;;;17.27;13.98;;;;;;;9.68;61.43;100951.84;10232561;28;20050;-60
2021/11/10 16:26:03;;;;;;;16.80;13.38;;;;;;;9.67;61.87;100950.16;10236399;28;20118;-61
2021/11/10 16:36:13;;;;;;;14.88;11.88;;;;;;;9.49;61.99;100941.59;10240351;28;20252;-59
2021/11/10 16:41:15;;;;;;;15.55;13.57;;;;;;;9.47;61.93;100965.59;10215870;28;20185;-60
2021/11/10 16:46:17;;;;;;;15.52;13.00;;;;;;;9.49;62.25;100963.69;10273094;28;20080;-60
2021/11/10 16:51:18;;;;;;;13.80;12.30;;;;;;;9.46;62.53;100969.22;10288505;28;20479;-60
2021/11/10 16:56:20;;;;;;;15.13;12.48;;;;;;;9.35;62.38;100967.25;10293749;28;20065;-60
2021/11/10 17:01:21;;;;;;;14.68;12.50;;;;;;;9.36;63.03;100973.41;10255551;28;20206;-61
2021/11/10 17:06:24;;;;;;;15.48;12.20;;;;;;;9.35;63.00;100972.56;10235686;28;20054;-60
2021/11/10 17:11:25;;;;;;;15.85;12.90;;;;;;;9.17;63.37;100963.09;10234735;28;20062;-61
2021/11/10 17:16:28;;;;;;;15.20;12.75;;;;;;;9.17;63.48;100973.69;10233873;28;20186;-60
2021/11/10 17:21:30;;;;;;;17.63;14.75;;;;;;;9.12;63.50;100976.66;10236543;28;20582;-60
2021/11/10 17:26:31;;;;;;;16.42;13.68;;;;;;;8.98;63.71;100977.53;10234107;28;20181;-59
2021/11/10 17:31:33;;;;;;;16.88;13.45;;;;;;;9.00;64.16;100977.44;10233741;28;20064;-59
2021/11/10 17:36:35;;;;;;;16.35;13.07;;;;;;;8.95;64.29;100990.16;10232117;28;20073;-60
2021/11/10 17:41:37;;;;;;;13.68;12.27;;;;;;;8.99;64.02;100994.31;10243375;28;20050;-60
2021/11/10 17:46:38;;;;;;;17.13;13.27;;;;;;;8.95;64.30;100992.81;10244007;28;20082;-60
2021/11/10 17:51:41;;;;;;;14.45;12.88;;;;;;;8.90;64.24;101002.84;10248706;28;20061;-60
2021/11/10 17:56:43;;;;;;;16.88;12.98;;;;;;;8.90;64.46;101000.19;10247265;28;20093;-66
2021/11/10 18:01:44;;;;;;;17.08;13.77;;;;;;;8.80;64.86;100995.44;10253354;28;20146;-65
2021/11/10 18:06:46;;;;;;;17.67;14.43;;;;;;;8.77;65.09;100987.66;10238445;28;20692;-64
2021/11/10 18:11:47;;;;;;;17.25;13.95;;;;;;;8.80;65.11;100995.44;10239340;28;20209;-64
2021/11/10 18:16:49;;;;;;;15.35;13.70;;;;;;;8.68;65.49;101001.50;10238258;28;20508;-63
2021/11/10 18:21:51;;;;;;;14.85;13.35;;;;;;;8.64;65.53;100981.41;10236798;28;20047;-66
2021/11/10 18:26:54;;;;;;;17.00;13.93;;;;;;;8.54;65.29;100982.91;10233930;28;20105;-66
2021/11/10 18:31:55;;;;;;;17.88;14.45;;;;;;;8.57;65.95;100985.38;10235166;28;20161;-66
2021/11/10 18:36:56;;;;;;;16.95;14.60;;;;;;;8.45;66.16;100979.88;10252167;28;20580;-66
2021/11/10 18:41:58;;;;;;;18.70;15.32;;;;;;;8.43;66.22;100979.06;10236957;28;20073;-64
2021/11/10 18:46:59;;;;;;;18.50;16.58;;;;;;;8.44;66.40;100978.16;10226910;28;20237;-66
2021/11/10 18:52:01;;;;;;;18.70;16.00;;;;;;;8.47;66.17;100977.13;10230419;28;20074;-59
2021/11/10 18:57:03;;;;;;;19.85;15.80;;;;;;;8.41;65.91;100980.97;10232908;28;20795;-59
2021/11/10 19:02:06;;;;;;;19.13;15.40;;;;;;;8.31;66.05;100980.63;10233062;28;20051;-59
2021/11/10 19:07:15;;;;;;;15.95;14.27;;;;;;;8.23;66.50;100982.06;10227506;28;20122;-59
2021/11/10 19:12:39;;;;;;;17.02;15.15;;;;;;;8.12;66.39;100980.03;10247680;28;20211;-59
2021/11/10 19:23:02;;;;;;;20.27;16.42;;;;;;;7.89;66.48;100984.03;10222606;28;20163;-59
2021/11/10 19:28:04;;;;;;;19.05;17.05;;;;;;;7.84;67.09;100980.78;10228135;28;20126;-59
2021/11/10 19:33:06;;;;;;;20.02;17.80;;;;;;;7.71;67.23;100970.88;10230054;28;20121;-61
2021/11/10 19:38:08;;;;;;;20.80;18.00;;;;;;;7.62;67.90;100963.44;10228656;28;20137;-61
2021/11/10 19:43:09;;;;;;;28.30;22.00;;;;;;;7.53;67.98;100974.56;10224672;28;20066;-59
2021/11/10 19:48:10;;;;;;;19.15;17.15;;;;;;;7.52;68.55;100967.56;10221515;28;20114;-59
2021/11/10 19:53:13;;;;;;;20.33;17.40;;;;;;;7.50;68.80;100966.78;10233484;28;20055;-60
2021/11/10 19:58:15;;;;;;;21.15;17.30;;;;;;;7.55;68.88;100983.28;10251577;28;20047;-59
2021/11/10 20:03:18;;;;;;;20.25;16.70;;;;;;;7.56;68.24;100985.00;10256058;28;20062;-60
2021/11/10 20:08:22;;;;;;;20.13;17.67;;;;;;;7.59;68.63;100984.81;10255679;28;20106;-59
2021/11/10 20:13:25;;;;;;;;;;;;;;;7.52;69.30;100980.81;10253862;28;20051;-59
2021/11/10 20:18:26;;;;;;;19.77;17.02;;;;;;;7.52;68.97;100986.09;10253208;28;20028;-61
2021/11/10 20:23:28;;;;;;;20.35;16.38;;;;;;;7.38;68.57;101000.97;10253282;28;20099;-59
2021/11/10 20:28:30;;;;;;;19.20;16.67;;;;;;;7.15;69.36;100999.59;10251331;28;20161;-60
2021/11/10 20:33:32;;;;;;;19.90;17.73;;;;;;;7.27;68.82;100995.41;10253529;28;20074;-60
2021/11/10 20:38:34;;;;;;;19.90;17.83;;;;;;;7.36;68.88;100996.72;10253164;28;20058;-60
2021/11/10 20:43:36;;;;;;;24.25;19.20;;;;;;;7.40;68.89;100999.09;10251910;28;20059;-61
2021/11/10 20:48:37;;;;;;;20.38;17.15;;;;;;;7.36;69.09;101002.84;10247365;28;20058;-59
2021/11/10 20:53:39;;;;;;;19.27;16.13;;;;;;;7.41;69.30;101002.59;10251733;28;20097;-60
2021/11/10 20:58:40;;;;;;;19.80;17.20;;;;;;;7.43;69.04;101004.22;10250432;28;20078;-60
2021/11/10 21:03:42;;;;;;;20.17;17.95;;;;;;;7.43;68.86;100998.94;10250802;28;20126;-60
2021/11/10 21:08:43;;;;;;;18.88;16.80;;;;;;;7.38;68.59;101002.78;10248945;28;20500;-60
2021/11/10 21:13:45;;;;;;;18.38;15.50;;;;;;;7.37;68.93;101004.56;10248668;28;20085;-61
2021/11/10 21:18:47;;;;;;;17.33;15.55;;;;;;;7.29;68.78;101006.78;10249106;28;20181;-59
2021/11/10 21:23:49;;;;;;;18.33;16.42;;;;;;;7.32;69.03;101014.53;10250394;28;20062;-59
2021/11/10 21:28:50;;;;;;;19.05;16.58;;;;;;;7.34;69.79;101011.81;10247449;28;20050;-60
2021/11/10 21:33:52;;;;;;;21.70;17.33;;;;;;;7.27;68.72;101006.00;10249631;28;20054;-60
2021/11/10 21:38:54;;;;;;;16.13;14.43;;;;;;;7.22;68.88;100994.78;10248108;28;20130;-61
2021/11/10 21:43:55;;;;;;;18.45;14.77;;;;;;;7.17;69.05;100992.41;10247623;28;20062;-59
2021/11/10 21:48:57;;;;;;;18.98;15.35;;;;;;;7.19;68.87;100989.66;10243700;28;20055;-60
2021/11/10 21:53:58;;;;;;;16.35;14.50;;;;;;;7.07;69.14;100988.53;10245970;28;20106;-60
2021/11/10 21:59:00;;;;;;;16.60;14.23;;;;;;;7.13;68.97;100976.78;10247610;28;20431;-60
2021/11/10 22:04:02;;;;;;;14.82;13.32;;;;;;;7.01;69.36;100979.16;10249412;28;20474;-60
2021/11/10 22:09:05;;;;;;;15.25;13.50;;;;;;;6.96;70.37;100973.25;10247690;28;20082;-60
2021/11/10 22:14:07;;;;;;;15.27;12.73;;;;;;;7.02;69.87;100964.13;10248871;28;20304;-60
2021/11/10 22:19:08;;;;;;;12.35;10.70;;;;;;;6.98;69.92;100955.50;10246263;28;20097;-60
2021/11/10 22:24:10;;;;;;;14.50;12.50;;;;;;;7.02;69.54;100967.63;10244692;28;20055;-58
2021/11/10 22:29:11;;;;;;;15.15;13.40;;;;;;;7.04;70.29;100978.13;10242589;28;20608;-59
2021/11/10 22:34:13;;;;;;;13.30;11.90;;;;;;;7.02;70.72;100978.19;10229681;28;20545;-58
2021/11/10 22:39:15;;;;;;;16.27;12.93;;;;;;;6.95;70.20;100968.91;10251075;28;20109;-58
2021/11/10 22:44:16;;;;;;;15.48;13.98;;;;;;;6.90;70.54;100960.34;10252619;28;20086;-59
2021/11/10 22:49:18;;;;;;;13.65;12.23;;;;;;;6.82;71.20;100966.06;10250751;28;20058;-59
2021/11/10 22:54:19;;;;;;;14.55;12.82;;;;;;;6.69;71.35;100960.53;10252487;28;20050;-59
2021/11/10 22:59:21;;;;;;;16.65;12.77;;;;;;;6.55;71.70;100953.34;10245242;28;20062;-59
2021/11/10 23:04:23;;;;;;;14.98;13.43;;;;;;;6.53;71.90;100947.28;10253372;28;20113;-59
2021/11/10 23:09:24;;;;;;;16.10;13.27;;;;;;;6.54;72.02;100940.19;10254398;28;20081;-59
2021/11/10 23:14:26;;;;;;;13.52;12.07;;;;;;;6.58;71.77;100941.75;10256497;28;20054;-58
2021/11/10 23:19:27;;;;;;;14.32;12.55;;;;;;;6.53;71.94;100933.19;10293084;28;20475;-59
2021/11/10 23:24:29;;;;;;;15.63;13.35;;;;;;;6.31;72.36;100934.31;10246820;28;20147;-60